createdAt,value
2018-05-12T00:00:31.755Z,16.76
2018-05-12T00:01:31.778Z,16.82
2018-05-12T00:02:31.799Z,16.84
2018-05-12T00:03:31.821Z,16.80
2018-05-12T00:04:31.849Z,16.82
2018-05-12T00:05:31.869Z,16.80
2018-05-12T00:06:31.889Z,16.81
2018-05-12T00:07:31.916Z,16.82
2018-05-12T00:08:31.933Z,16.85
2018-05-12T00:09:31.957Z,16.82
2018-05-12T00:10:32.057Z,16.80
2018-05-12T00:11:32.000Z,16.84
2018-05-12T00:12:32.023Z,16.77
2018-05-12T00:13:32.044Z,16.73
2018-05-12T00:14:32.067Z,16.88
2018-05-12T00:15:32.089Z,16.84
2018-05-12T00:16:32.111Z,16.72
2018-05-12T00:17:32.134Z,16.77
2018-05-12T00:18:32.156Z,16.73
2018-05-12T00:19:32.178Z,16.77
2018-05-12T00:20:32.200Z,16.73
2018-05-12T00:21:32.223Z,16.67
2018-05-12T00:22:32.244Z,16.70
2018-05-12T00:23:32.270Z,16.74
2018-05-12T00:24:32.289Z,16.74
2018-05-12T00:25:32.312Z,16.76
2018-05-12T00:26:32.334Z,16.77
2018-05-12T00:27:32.435Z,16.73
2018-05-12T00:28:32.378Z,16.66
2018-05-12T00:29:32.401Z,16.62
2018-05-12T00:30:32.423Z,16.70
2018-05-12T00:31:32.445Z,16.63
2018-05-12T00:32:32.468Z,16.65
2018-05-12T00:33:32.489Z,16.63
2018-05-12T00:34:32.512Z,16.70
2018-05-12T00:35:32.533Z,16.66
2018-05-12T00:36:32.557Z,16.62
2018-05-12T00:37:32.580Z,16.67
2018-05-12T00:38:32.601Z,16.63
2018-05-12T00:39:32.622Z,16.66
2018-05-12T00:40:32.644Z,16.65
2018-05-12T00:41:32.668Z,16.69
2018-05-12T00:42:32.689Z,16.63
2018-05-12T00:43:32.711Z,16.59
2018-05-12T00:44:32.733Z,16.69
2018-05-12T00:45:32.757Z,16.73
2018-05-12T00:46:32.778Z,16.66
2018-05-12T00:47:32.799Z,16.65
2018-05-12T00:48:32.822Z,16.70
2018-05-12T00:49:32.845Z,16.59
2018-05-12T00:50:32.866Z,16.67
2018-05-12T00:51:32.888Z,16.65
2018-05-12T00:52:32.911Z,16.65
2018-05-12T00:53:32.933Z,16.66
2018-05-12T00:54:32.956Z,16.65
2018-05-12T00:55:32.977Z,16.62
2018-05-12T00:56:32.999Z,16.63
2018-05-12T00:57:33.021Z,16.65
2018-05-12T00:58:33.045Z,16.63
2018-05-12T00:59:33.067Z,16.63
2018-05-12T01:00:33.089Z,16.67
2018-05-12T01:01:33.110Z,16.66
2018-05-12T01:02:33.133Z,16.66
2018-05-12T01:03:33.155Z,16.74
2018-05-12T01:04:33.177Z,16.67
2018-05-12T01:05:33.199Z,16.70
2018-05-12T01:06:33.222Z,16.74
2018-05-12T01:07:33.243Z,16.69
2018-05-12T01:08:33.266Z,16.62
2018-05-12T01:09:33.289Z,16.72
2018-05-12T01:10:33.311Z,16.69
2018-05-12T01:11:33.332Z,16.69
2018-05-12T01:12:33.356Z,16.69
2018-05-12T01:13:33.379Z,16.58
2018-05-12T01:14:33.400Z,16.59
2018-05-12T01:15:33.421Z,16.45
2018-05-12T01:16:33.516Z,16.59
2018-05-12T01:17:33.466Z,16.54
2018-05-12T01:18:33.488Z,16.57
2018-05-12T01:19:33.510Z,16.66
2018-05-12T01:20:33.533Z,16.51
2018-05-12T01:21:33.556Z,16.59
2018-05-12T01:22:33.577Z,16.59
2018-05-12T01:23:33.602Z,16.59
2018-05-12T01:24:33.622Z,16.66
2018-05-12T01:25:33.643Z,16.59
2018-05-12T01:26:33.667Z,16.52
2018-05-12T01:27:33.689Z,16.48
2018-05-12T01:28:33.710Z,16.49
2018-05-12T01:29:33.738Z,16.44
2018-05-12T01:30:33.759Z,16.44
2018-05-12T01:31:33.777Z,16.44
2018-05-12T01:32:33.800Z,16.40
2018-05-12T01:33:33.821Z,16.44
2018-05-12T01:34:33.844Z,16.40
2018-05-12T01:35:33.866Z,16.40
2018-05-12T01:36:33.888Z,16.47
2018-05-12T01:37:33.911Z,16.44
2018-05-12T01:38:33.933Z,16.40
2018-05-12T01:39:33.957Z,16.42
2018-05-12T01:40:33.981Z,16.42
2018-05-12T01:41:33.998Z,16.40
2018-05-12T01:42:34.022Z,16.39
2018-05-12T01:43:34.042Z,16.42
2018-05-12T01:44:34.065Z,16.34
2018-05-12T01:45:34.087Z,16.33
2018-05-12T01:46:34.109Z,16.36
2018-05-12T01:47:34.132Z,16.27
2018-05-12T01:48:34.154Z,16.27
2018-05-12T01:49:34.177Z,16.22
2018-05-12T01:50:34.198Z,16.21
2018-05-12T01:51:34.219Z,16.16
2018-05-12T01:52:34.242Z,16.14
2018-05-12T01:53:34.264Z,16.16
2018-05-12T01:54:34.287Z,16.17
2018-05-12T01:55:34.308Z,16.16
2018-05-12T01:56:34.331Z,16.16
2018-05-12T01:57:34.353Z,16.25
2018-05-12T01:58:34.375Z,16.17
2018-05-12T01:59:34.396Z,16.32
2018-05-12T02:00:34.454Z,16.29
2018-05-12T02:01:34.441Z,16.25
2018-05-12T02:02:34.463Z,16.34
2018-05-12T02:03:34.485Z,16.21
2018-05-12T02:04:34.507Z,16.11
2018-05-12T02:05:34.529Z,16.07
2018-05-12T02:06:34.552Z,16.10
2018-05-12T02:07:34.574Z,16.17
2018-05-12T02:08:34.595Z,16.06
2018-05-12T02:09:34.617Z,16.08
2018-05-12T02:10:34.640Z,16.08
2018-05-12T02:11:34.661Z,16.17
2018-05-12T02:12:34.686Z,16.07
2018-05-12T02:13:34.709Z,16.18
2018-05-12T02:14:34.728Z,16.16
2018-05-12T02:15:34.750Z,16.07
2018-05-12T02:16:34.772Z,16.07
2018-05-12T02:17:34.794Z,16.10
2018-05-12T02:18:34.817Z,16.18
2018-05-12T02:19:34.838Z,16.13
2018-05-12T02:20:34.861Z,16.06
2018-05-12T02:21:34.883Z,16.21
2018-05-12T02:22:34.905Z,16.11
2018-05-12T02:23:34.930Z,16.25
2018-05-12T02:24:34.949Z,16.17
2018-05-12T02:25:34.972Z,16.14
2018-05-12T02:26:34.993Z,16.11
2018-05-12T02:27:35.015Z,16.17
2018-05-12T02:28:35.039Z,16.11
2018-05-12T02:29:35.060Z,16.17
2018-05-12T02:30:35.082Z,16.14
2018-05-12T02:31:35.103Z,16.14
2018-05-12T02:32:35.129Z,16.08
2018-05-12T02:33:35.148Z,16.14
2018-05-12T02:34:35.170Z,16.16
2018-05-12T02:35:35.192Z,16.22
2018-05-12T02:36:35.215Z,16.29
2018-05-12T02:37:35.237Z,16.25
2018-05-12T02:38:35.261Z,16.18
2018-05-12T02:39:35.281Z,16.22
2018-05-12T02:40:35.310Z,16.16
2018-05-12T02:41:35.336Z,16.25
2018-05-12T02:42:35.358Z,16.30
2018-05-12T02:43:35.369Z,16.21
2018-05-12T02:44:35.394Z,16.26
2018-05-12T02:45:35.415Z,16.21
2018-05-12T02:46:35.437Z,16.17
2018-05-12T02:47:35.458Z,16.27
2018-05-12T02:48:35.482Z,16.29
2018-05-12T02:49:35.503Z,16.17
2018-05-12T02:50:35.524Z,16.16
2018-05-12T02:51:35.546Z,16.16
2018-05-12T02:52:35.571Z,16.02
2018-05-12T02:53:35.597Z,16.13
2018-05-12T02:54:35.613Z,16.04
2018-05-12T02:55:35.639Z,16.08
2018-05-12T02:56:35.658Z,16.08
2018-05-12T02:57:35.683Z,16.04
2018-05-12T02:58:35.702Z,16.08
2018-05-12T02:59:35.723Z,16.07
2018-05-12T03:00:35.746Z,16.04
2018-05-12T03:01:35.768Z,15.98
2018-05-12T03:02:35.791Z,15.99
2018-05-12T03:03:35.813Z,15.96
2018-05-12T03:04:35.836Z,15.99
2018-05-12T03:05:35.860Z,15.92
2018-05-12T03:06:35.880Z,15.86
2018-05-12T03:07:35.901Z,15.88
2018-05-12T03:08:35.923Z,15.88
2018-05-12T03:09:35.946Z,15.78
2018-05-12T03:10:35.968Z,15.71
2018-05-12T03:11:35.989Z,15.67
2018-05-12T03:12:36.012Z,15.74
2018-05-12T03:13:36.034Z,15.59
2018-05-12T03:14:36.057Z,15.62
2018-05-12T03:15:36.130Z,15.59
2018-05-12T03:16:36.099Z,15.58
2018-05-12T03:17:36.121Z,15.47
2018-05-12T03:18:36.145Z,15.47
2018-05-12T03:19:36.169Z,15.51
2018-05-12T03:20:36.188Z,15.45
2018-05-12T03:21:36.209Z,15.45
2018-05-12T03:22:36.235Z,15.41
2018-05-12T03:23:36.255Z,15.33
2018-05-12T03:24:36.275Z,15.35
2018-05-12T03:25:36.298Z,15.27
2018-05-12T03:26:36.320Z,15.35
2018-05-12T03:27:36.341Z,15.33
2018-05-12T03:28:36.364Z,15.26
2018-05-12T03:29:36.385Z,15.19
2018-05-12T03:30:36.413Z,15.15
2018-05-12T03:31:36.430Z,15.22
2018-05-12T03:32:36.451Z,15.19
2018-05-12T03:33:36.558Z,15.19
2018-05-12T03:34:36.496Z,15.22
2018-05-12T03:35:36.517Z,15.12
2018-05-12T03:36:36.540Z,15.13
2018-05-12T03:37:36.561Z,15.10
2018-05-12T03:38:36.583Z,15.12
2018-05-12T03:39:36.604Z,15.13
2018-05-12T03:40:36.626Z,15.07
2018-05-12T03:41:36.650Z,15.12
2018-05-12T03:42:36.671Z,15.00
2018-05-12T03:43:36.692Z,15.08
2018-05-12T03:44:36.714Z,15.08
2018-05-12T03:45:36.739Z,14.97
2018-05-12T03:46:36.758Z,15.04
2018-05-12T03:47:36.779Z,14.97
2018-05-12T03:48:36.801Z,14.94
2018-05-12T03:49:36.823Z,14.97
2018-05-12T03:50:36.845Z,14.98
2018-05-12T03:51:36.867Z,14.98
2018-05-12T03:52:36.888Z,14.93
2018-05-12T03:53:36.910Z,14.86
2018-05-12T03:54:36.932Z,14.90
2018-05-12T03:55:37.203Z,14.94
2018-05-12T03:56:36.976Z,14.95
2018-05-12T03:57:37.001Z,14.90
2018-05-12T03:58:37.019Z,14.97
2018-05-12T03:59:37.040Z,14.94
2018-05-12T04:00:37.063Z,14.98
2018-05-12T04:01:37.085Z,14.95
2018-05-12T04:02:37.105Z,15.01
2018-05-12T04:03:37.129Z,15.02
2018-05-12T04:04:37.149Z,15.04
2018-05-12T04:05:37.175Z,15.01
2018-05-12T04:06:37.194Z,15.07
2018-05-12T04:07:37.214Z,15.12
2018-05-12T04:08:37.312Z,15.16
2018-05-12T04:09:37.258Z,15.18
2018-05-12T04:10:37.280Z,15.18
2018-05-12T04:11:37.302Z,15.16
2018-05-12T04:12:37.324Z,15.13
2018-05-12T04:13:37.344Z,15.13
2018-05-12T04:14:37.367Z,15.18
2018-05-12T04:15:37.387Z,15.18
2018-05-12T04:16:37.410Z,15.22
2018-05-12T04:17:37.433Z,15.19
2018-05-12T04:18:37.453Z,15.15
2018-05-12T04:19:37.474Z,15.10
2018-05-12T04:20:37.497Z,15.16
2018-05-12T04:21:37.519Z,15.10
2018-05-12T04:22:37.540Z,15.13
2018-05-12T04:23:37.565Z,15.16
2018-05-12T04:24:37.582Z,15.15
2018-05-12T04:25:37.604Z,15.16
2018-05-12T04:26:37.627Z,15.18
2018-05-12T04:27:37.648Z,15.15
2018-05-12T04:28:37.672Z,15.16
2018-05-12T04:29:37.693Z,15.10
2018-05-12T04:30:37.717Z,15.15
2018-05-12T04:31:37.735Z,15.15
2018-05-12T04:32:37.762Z,15.16
2018-05-12T04:33:37.778Z,15.18
2018-05-12T04:34:37.803Z,15.25
2018-05-12T04:35:37.822Z,15.20
2018-05-12T04:36:37.849Z,15.30
2018-05-12T04:37:37.865Z,15.30
2018-05-12T04:38:37.887Z,15.38
2018-05-12T04:39:37.908Z,15.33
2018-05-12T04:40:37.930Z,15.33
2018-05-12T04:41:37.953Z,15.33
2018-05-12T04:42:37.974Z,15.44
2018-05-12T04:43:37.995Z,15.31
2018-05-12T04:44:38.017Z,15.38
2018-05-12T04:45:38.039Z,15.47
2018-05-12T04:46:38.061Z,15.49
2018-05-12T04:47:38.082Z,15.44
2018-05-12T04:48:38.104Z,15.51
2018-05-12T04:49:38.126Z,15.49
2018-05-12T04:50:38.149Z,15.44
2018-05-12T04:51:38.169Z,15.59
2018-05-12T04:52:38.191Z,15.55
2018-05-12T04:53:38.213Z,15.58
2018-05-12T04:54:38.235Z,15.59
2018-05-12T04:55:38.257Z,15.62
2018-05-12T04:56:38.279Z,15.59
2018-05-12T04:57:38.301Z,15.60
2018-05-12T04:58:38.322Z,15.65
2018-05-12T04:59:38.343Z,15.63
2018-05-12T05:00:38.366Z,15.67
2018-05-12T05:01:38.388Z,15.74
2018-05-12T05:02:38.409Z,15.86
2018-05-12T05:03:38.432Z,15.92
2018-05-12T05:04:38.454Z,16.06
2018-05-12T05:05:38.482Z,16.11
2018-05-12T05:06:38.498Z,16.21
2018-05-12T05:07:38.518Z,16.32
2018-05-12T05:08:38.541Z,16.34
2018-05-12T05:09:38.563Z,16.26
2018-05-12T05:10:38.585Z,16.08
2018-05-12T05:11:38.606Z,16.11
2018-05-12T05:12:38.631Z,16.10
2018-05-12T05:13:38.656Z,16.10
2018-05-12T05:14:38.673Z,16.00
2018-05-12T05:15:38.694Z,16.07
2018-05-12T05:16:38.721Z,16.14
2018-05-12T05:17:38.740Z,16.30
2018-05-12T05:18:38.761Z,16.47
2018-05-12T05:19:38.785Z,16.67
2018-05-12T05:20:38.805Z,16.70
2018-05-12T05:21:38.828Z,16.80
2018-05-12T05:22:38.849Z,16.84
2018-05-12T05:23:38.872Z,17.02
2018-05-12T05:24:38.894Z,16.87
2018-05-12T05:28:21.525Z,17.17
2018-05-12T05:28:22.664Z,17.17
2018-05-12T05:29:22.685Z,17.31
2018-05-12T05:30:22.709Z,17.31
2018-05-12T05:31:22.734Z,17.36
2018-05-12T05:32:22.754Z,17.36
2018-05-12T05:33:22.776Z,17.35
2018-05-12T05:34:22.798Z,17.46
2018-05-12T05:35:22.824Z,17.62
2018-05-12T05:36:22.844Z,17.66
2018-05-12T05:37:22.867Z,17.76
2018-05-12T05:38:22.897Z,17.79
2018-05-12T05:39:22.913Z,17.88
2018-05-12T05:40:22.936Z,17.99
2018-05-12T05:41:22.959Z,18.05
2018-05-12T05:42:22.982Z,18.13
2018-05-12T05:43:23.004Z,18.26
2018-05-12T05:44:23.029Z,18.26
2018-05-12T05:45:23.053Z,18.47
2018-05-12T05:46:23.072Z,18.39
2018-05-12T05:47:23.101Z,18.56
2018-05-12T05:48:23.122Z,18.44
2018-05-12T05:49:23.145Z,18.39
2018-05-12T05:50:23.169Z,18.50
2018-05-12T05:51:23.192Z,18.50
2018-05-12T05:52:23.215Z,18.36
2018-05-12T05:53:23.239Z,18.45
2018-05-12T05:54:23.262Z,18.61
2018-05-12T05:55:23.287Z,18.66
2018-05-12T05:56:23.310Z,18.59
2018-05-12T05:57:23.335Z,18.34
2018-05-12T05:58:23.356Z,18.59
2018-05-12T05:59:23.481Z,18.76
2018-05-12T06:00:23.407Z,18.91
2018-05-12T06:01:23.429Z,18.94
2018-05-12T06:02:23.453Z,18.97
2018-05-12T06:03:23.478Z,18.91
2018-05-12T06:04:23.502Z,18.87
2018-05-12T06:05:23.525Z,18.50
2018-05-12T06:06:23.549Z,18.56
2018-05-12T06:07:23.577Z,18.75
2018-05-12T06:08:23.598Z,18.86
2018-05-12T06:09:23.622Z,19.09
2018-05-12T06:10:23.645Z,19.24
2018-05-12T06:11:23.670Z,19.43
2018-05-12T06:12:23.695Z,19.32
2018-05-12T06:13:23.720Z,19.31
2018-05-12T06:14:23.744Z,19.16
2018-05-12T06:15:23.768Z,19.28
2018-05-12T06:16:23.793Z,19.52
2018-05-12T06:17:23.817Z,19.65
2018-05-12T06:18:23.841Z,19.80
2018-05-12T06:19:23.867Z,19.79
2018-05-12T06:20:23.897Z,19.87
2018-05-12T06:21:23.916Z,19.63
2018-05-12T06:22:23.940Z,19.49
2018-05-12T06:23:23.967Z,19.28
2018-05-12T06:24:23.991Z,19.37
2018-05-12T06:25:24.015Z,19.57
2018-05-12T06:26:24.041Z,19.74
2018-05-12T06:27:24.070Z,19.89
2018-05-12T06:28:24.091Z,20.23
2018-05-12T06:29:24.115Z,20.38
2018-05-12T06:30:24.139Z,20.41
2018-05-12T06:31:24.165Z,20.54
2018-05-12T06:32:24.191Z,20.64
2018-05-12T06:33:24.219Z,20.40
2018-05-12T06:34:24.244Z,20.26
2018-05-12T06:35:24.266Z,20.23
2018-05-12T06:36:24.292Z,20.32
2018-05-12T06:37:24.318Z,20.35
2018-05-12T06:38:24.343Z,20.58
2018-05-12T06:39:24.369Z,20.66
2018-05-12T06:40:24.396Z,20.79
2018-05-12T06:41:24.421Z,20.91
2018-05-12T06:42:24.447Z,20.96
2018-05-12T06:43:24.474Z,21.11
2018-05-12T06:44:24.500Z,20.57
2018-05-12T06:45:24.525Z,20.34
2018-05-12T06:46:24.549Z,20.25
2018-05-12T06:47:24.576Z,20.22
2018-05-12T06:48:24.601Z,20.44
2018-05-12T06:49:24.628Z,20.44
2018-05-12T06:50:24.654Z,20.86
2018-05-12T06:51:24.680Z,21.19
2018-05-12T06:52:24.706Z,21.11
2018-05-12T06:53:24.732Z,20.79
2018-05-12T06:54:24.758Z,20.76
2018-05-12T06:55:24.785Z,20.76
2018-05-12T06:56:24.811Z,20.79
2018-05-12T06:57:24.840Z,21.08
2018-05-12T06:58:24.865Z,21.27
2018-05-12T06:59:24.891Z,21.52
2018-05-12T07:00:24.918Z,21.68
2018-05-12T07:01:25.021Z,21.82
2018-05-12T07:02:24.973Z,22.08
2018-05-12T07:03:24.996Z,22.14
2018-05-12T07:04:25.025Z,22.14
2018-05-12T07:05:25.053Z,22.23
2018-05-12T07:06:25.118Z,22.26
2018-05-12T07:07:25.104Z,22.30
2018-05-12T07:08:25.132Z,22.51
2018-05-12T07:09:25.159Z,22.44
2018-05-12T07:10:25.186Z,22.48
2018-05-12T07:11:25.213Z,21.99
2018-05-12T07:12:25.273Z,22.05
2018-05-12T07:13:25.268Z,21.77
2018-05-12T07:14:25.318Z,21.53
2018-05-12T07:15:25.325Z,21.43
2018-05-12T07:16:25.352Z,21.80
2018-05-12T07:17:25.380Z,22.07
2018-05-12T07:18:25.407Z,21.90
2018-05-12T07:19:25.528Z,22.02
2018-05-12T07:20:25.462Z,21.89
2018-05-12T07:21:25.490Z,21.68
2018-05-12T07:22:25.517Z,21.67
2018-05-12T07:23:25.545Z,21.96
2018-05-12T07:24:25.574Z,22.26
2018-05-12T07:25:25.607Z,22.55
2018-05-12T07:26:25.629Z,22.71
2018-05-12T07:27:25.657Z,22.89
2018-05-12T07:28:25.686Z,23.18
2018-05-12T07:29:25.715Z,23.29
2018-05-12T07:30:25.742Z,23.32
2018-05-12T07:31:25.771Z,23.35
2018-05-12T07:32:25.800Z,23.48
2018-05-12T07:33:25.829Z,23.48
2018-05-12T07:34:25.856Z,23.42
2018-05-12T07:35:25.885Z,23.47
2018-05-12T07:36:25.914Z,23.34
2018-05-12T07:37:25.943Z,23.15
2018-05-12T07:38:25.971Z,23.21
2018-05-12T07:39:25.999Z,23.25
2018-05-12T07:40:26.029Z,23.29
2018-05-12T07:41:26.059Z,23.44
2018-05-12T07:42:26.087Z,23.72
2018-05-12T07:43:26.115Z,24.02
2018-05-12T07:44:26.146Z,24.15
2018-05-12T07:45:26.177Z,24.02
2018-05-12T07:46:26.207Z,23.74
2018-05-12T07:47:26.233Z,23.71
2018-05-12T07:48:26.262Z,23.87
2018-05-12T07:49:26.292Z,23.78
2018-05-12T07:50:26.321Z,24.21
2018-05-12T07:51:26.360Z,24.64
2018-05-12T07:52:26.381Z,24.78
2018-05-12T07:53:26.412Z,24.94
2018-05-12T07:54:26.440Z,25.15
2018-05-12T07:55:26.470Z,25.54
2018-05-12T07:56:26.502Z,25.79
2018-05-12T07:57:26.531Z,25.93
2018-05-12T07:58:26.560Z,25.94
2018-05-12T07:59:26.590Z,25.99
2018-05-12T08:00:26.621Z,25.99
2018-05-12T08:01:26.652Z,26.19
2018-05-12T08:02:26.681Z,26.03
2018-05-12T08:03:26.787Z,26.47
2018-05-12T08:04:26.746Z,26.61
2018-05-12T08:05:26.774Z,26.45
2018-05-12T08:06:26.805Z,26.42
2018-05-12T08:07:26.835Z,26.67
2018-05-12T08:08:26.867Z,26.64
2018-05-12T08:09:26.899Z,26.64
2018-05-12T08:10:26.930Z,26.79
2018-05-12T08:11:26.961Z,26.61
2018-05-12T08:12:26.993Z,26.64
2018-05-12T08:13:27.025Z,26.52
2018-05-12T08:14:27.055Z,26.32
2018-05-12T08:15:27.087Z,26.09
2018-05-12T08:16:27.120Z,26.19
2018-05-12T08:17:27.155Z,26.27
2018-05-12T08:18:27.182Z,26.32
2018-05-12T08:19:27.216Z,26.69
2018-05-12T08:20:27.247Z,26.97
2018-05-12T08:21:27.279Z,26.63
2018-05-12T08:22:27.311Z,26.94
2018-05-12T08:23:27.344Z,27.13
2018-05-12T08:24:27.381Z,27.01
2018-05-12T08:25:27.408Z,27.30
2018-05-12T08:26:27.440Z,27.24
2018-05-12T08:27:27.475Z,27.19
2018-05-12T08:28:27.506Z,27.11
2018-05-12T08:29:27.538Z,27.33
2018-05-12T08:30:27.568Z,27.46
2018-05-12T08:31:27.604Z,27.36
2018-05-12T08:32:27.634Z,27.30
2018-05-12T08:33:27.667Z,27.28
2018-05-12T08:34:27.698Z,27.36
2018-05-12T08:35:27.732Z,27.57
2018-05-12T08:36:27.765Z,27.83
2018-05-12T08:37:27.797Z,27.68
2018-05-12T08:38:27.830Z,27.69
2018-05-12T08:39:27.861Z,27.89
2018-05-12T08:40:27.899Z,28.23
2018-05-12T08:41:27.930Z,28.16
2018-05-12T08:42:27.963Z,27.69
2018-05-12T08:43:27.993Z,27.80
2018-05-12T08:44:28.027Z,27.94
2018-05-12T08:45:28.059Z,28.26
2018-05-12T08:46:28.092Z,28.35
2018-05-12T08:47:28.124Z,28.45
2018-05-12T08:48:28.157Z,28.06
2018-05-12T08:49:28.191Z,28.06
2018-05-12T08:50:28.223Z,27.66
2018-05-12T08:51:28.256Z,28.08
2018-05-12T08:52:28.292Z,28.20
2018-05-12T08:53:28.323Z,28.23
2018-05-12T08:54:28.356Z,28.36
2018-05-12T08:55:28.388Z,28.41
2018-05-12T08:56:28.421Z,28.41
2018-05-12T08:57:28.455Z,28.31
2018-05-12T08:58:28.487Z,27.89
2018-05-12T08:59:28.521Z,28.17
2018-05-12T09:00:28.554Z,28.12
2018-05-12T09:01:28.673Z,28.05
2018-05-12T09:02:28.621Z,28.28
2018-05-12T09:03:28.654Z,28.54
2018-05-12T09:04:28.689Z,28.78
2018-05-12T09:05:28.720Z,28.60
2018-05-12T09:06:28.752Z,28.72
2018-05-12T09:07:28.785Z,28.61
2018-05-12T09:08:28.819Z,28.51
2018-05-12T09:09:28.852Z,28.82
2018-05-12T09:10:28.884Z,29.06
2018-05-12T09:11:28.919Z,29.33
2018-05-12T09:12:28.952Z,29.23
2018-05-12T09:13:28.985Z,29.13
2018-05-12T09:14:29.018Z,29.33
2018-05-12T09:15:29.052Z,29.40
2018-05-12T09:16:29.089Z,28.98
2018-05-12T09:17:29.120Z,28.85
2018-05-12T09:18:29.151Z,28.36
2018-05-12T09:19:29.184Z,27.90
2018-05-12T09:20:29.219Z,27.38
2018-05-12T09:21:29.252Z,26.82
2018-05-12T09:22:29.286Z,26.60
2018-05-12T09:23:29.318Z,27.28
2018-05-12T09:24:29.351Z,27.68
2018-05-12T09:25:29.447Z,27.55
2018-05-12T09:26:29.417Z,27.89
2018-05-12T09:27:29.451Z,28.09
2018-05-12T09:28:29.484Z,28.05
2018-05-12T09:29:29.518Z,28.41
2018-05-12T09:30:29.550Z,28.21
2018-05-12T09:31:29.583Z,28.28
2018-05-12T09:32:29.616Z,28.38
2018-05-12T09:33:29.652Z,28.67
2018-05-12T09:34:29.681Z,28.80
2018-05-12T09:35:29.716Z,29.10
2018-05-12T09:36:29.750Z,29.05
2018-05-12T09:37:29.780Z,28.95
2018-05-12T09:38:29.814Z,29.29
2018-05-12T09:39:29.873Z,29.23
2018-05-12T09:40:29.880Z,29.10
2018-05-12T09:41:29.913Z,28.80
2018-05-12T09:42:30.057Z,28.09
2018-05-12T09:43:29.978Z,27.91
2018-05-12T09:44:30.013Z,26.91
2018-05-12T09:45:30.046Z,27.18
2018-05-12T09:46:30.079Z,27.91
2018-05-12T09:47:30.110Z,28.21
2018-05-12T09:48:30.145Z,28.58
2018-05-12T09:49:30.177Z,29.02
2018-05-12T09:50:30.209Z,29.33
2018-05-12T09:51:30.246Z,29.45
2018-05-12T09:52:30.282Z,29.48
2018-05-12T09:53:30.309Z,30.11
2018-05-12T09:54:30.341Z,30.40
2018-05-12T09:55:30.374Z,30.13
2018-05-12T09:56:30.409Z,30.40
2018-05-12T09:57:30.441Z,30.52
2018-05-12T09:58:30.475Z,30.56
2018-05-12T09:59:30.541Z,30.70
2018-05-12T10:00:30.546Z,29.88
2018-05-12T10:01:30.575Z,29.42
2018-05-12T10:02:30.606Z,29.24
2018-05-12T10:03:30.644Z,29.50
2018-05-12T10:04:30.673Z,30.10
2018-05-12T10:05:30.709Z,30.64
2018-05-12T10:06:30.744Z,30.67
2018-05-12T10:07:30.775Z,31.01
2018-05-12T10:08:30.808Z,30.60
2018-05-12T10:09:30.856Z,29.48
2018-05-12T10:10:30.874Z,27.90
2018-05-12T10:11:30.908Z,26.53
2018-05-12T10:12:30.941Z,26.01
2018-05-12T10:13:30.976Z,25.93
2018-05-12T10:14:31.008Z,25.70
2018-05-12T10:15:31.110Z,25.69
2018-05-12T10:16:31.074Z,25.63
2018-05-12T10:17:31.107Z,25.54
2018-05-12T10:18:31.139Z,25.56
2018-05-12T10:19:31.278Z,25.37
2018-05-12T10:20:31.205Z,25.86
2018-05-12T10:21:31.236Z,26.53
2018-05-12T10:22:31.268Z,26.30
2018-05-12T10:23:31.317Z,26.22
2018-05-12T10:24:31.332Z,27.37
2018-05-12T10:25:31.365Z,28.17
2018-05-12T10:26:31.395Z,28.90
2018-05-12T10:27:31.428Z,28.97
2018-05-12T10:28:31.459Z,28.76
2018-05-12T10:29:31.494Z,28.80
2018-05-12T10:30:31.522Z,28.11
2018-05-12T10:31:31.555Z,28.54
2018-05-12T10:32:31.587Z,28.95
2018-05-12T10:33:31.617Z,28.78
2018-05-12T10:34:31.652Z,28.65
2018-05-12T10:35:31.679Z,28.39
2018-05-12T10:36:31.712Z,27.74
2018-05-12T10:37:31.743Z,27.38
2018-05-12T10:38:31.775Z,26.87
2018-05-12T10:39:31.806Z,26.35
2018-05-12T10:40:31.838Z,26.09
2018-05-12T10:41:31.871Z,25.69
2018-05-12T10:42:31.901Z,25.12
2018-05-12T10:43:31.933Z,24.78
2018-05-12T10:44:31.965Z,24.97
2018-05-12T10:45:31.996Z,25.69
2018-05-12T10:46:32.027Z,26.78
2018-05-12T10:47:32.057Z,27.61
2018-05-12T10:48:32.093Z,28.30
2018-05-12T10:49:32.120Z,28.92
2018-05-12T10:50:32.149Z,29.20
2018-05-12T10:51:32.180Z,28.98
2018-05-12T10:52:32.213Z,28.65
2018-05-12T10:53:32.244Z,28.31
2018-05-12T10:54:32.274Z,27.51
2018-05-12T10:55:32.306Z,26.37
2018-05-12T10:56:32.336Z,26.99
2018-05-12T10:57:32.368Z,27.06
2018-05-12T10:58:32.398Z,27.18
2018-05-12T10:59:32.430Z,27.49
2018-05-12T11:00:32.464Z,27.57
2018-05-12T11:01:32.493Z,28.14
2018-05-12T11:02:32.523Z,28.67
2018-05-12T11:03:32.555Z,28.79
2018-05-12T11:04:32.585Z,28.80
2018-05-12T11:05:32.618Z,28.11
2018-05-12T11:06:32.648Z,28.26
2018-05-12T11:07:32.682Z,28.61
2018-05-12T11:08:32.711Z,29.03
2018-05-12T11:09:32.748Z,29.08
2018-05-12T11:10:32.773Z,29.32
2018-05-12T11:11:32.807Z,29.82
2018-05-12T11:12:32.838Z,29.51
2018-05-12T11:13:32.869Z,29.77
2018-05-12T11:14:32.900Z,29.77
2018-05-12T11:15:32.931Z,30.18
2018-05-12T11:16:32.965Z,30.32
2018-05-12T11:17:32.995Z,30.31
2018-05-12T11:18:33.027Z,29.85
2018-05-12T11:19:33.059Z,29.63
2018-05-12T11:20:33.093Z,28.95
2018-05-12T11:21:33.144Z,28.51
2018-05-12T11:22:33.157Z,28.75
2018-05-12T11:23:33.187Z,28.01
2018-05-12T11:24:33.219Z,27.74
2018-05-12T11:25:33.251Z,27.19
2018-05-12T11:26:33.335Z,27.57
2018-05-12T11:27:33.315Z,28.16
2018-05-12T11:28:33.352Z,28.83
2018-05-12T11:29:33.379Z,29.15
2018-05-12T11:30:33.411Z,28.48
2018-05-12T11:31:33.443Z,28.45
2018-05-12T11:32:33.475Z,28.41
2018-05-12T11:33:33.510Z,28.26
2018-05-12T11:34:33.538Z,28.14
2018-05-12T11:35:33.570Z,28.23
2018-05-12T11:36:33.603Z,28.30
2018-05-12T11:37:33.636Z,28.39
2018-05-12T11:38:33.666Z,28.17
2018-05-12T11:39:33.698Z,28.54
2018-05-12T11:40:33.730Z,28.73
2018-05-12T11:41:33.762Z,28.91
2018-05-12T11:42:33.793Z,28.58
2018-05-12T11:43:33.825Z,28.55
2018-05-12T11:44:33.909Z,29.13
2018-05-12T11:45:33.889Z,29.28
2018-05-12T11:46:33.920Z,28.70
2018-05-12T11:47:33.953Z,27.36
2018-05-12T11:48:33.993Z,26.71
2018-05-12T11:49:34.016Z,26.34
2018-05-12T11:50:34.047Z,26.47
2018-05-12T11:51:34.083Z,27.18
2018-05-12T11:52:34.111Z,27.81
2018-05-12T11:53:34.143Z,28.06
2018-05-12T11:54:34.173Z,28.28
2018-05-12T11:55:34.212Z,28.88
2018-05-12T11:56:34.237Z,28.92
2018-05-12T11:57:34.268Z,29.26
2018-05-12T11:58:34.300Z,28.43
2018-05-12T11:59:34.331Z,28.43
2018-05-12T12:00:34.362Z,29.01
2018-05-12T12:01:34.396Z,28.94
2018-05-12T12:02:34.458Z,28.58
2018-05-12T12:03:34.458Z,28.76
2018-05-12T12:04:34.488Z,28.91
2018-05-12T12:05:34.519Z,29.30
2018-05-12T12:06:34.553Z,29.24
2018-05-12T12:07:34.580Z,28.82
2018-05-12T12:08:34.614Z,28.43
2018-05-12T12:09:34.644Z,27.59
2018-05-12T12:10:34.678Z,27.09
2018-05-12T12:11:34.706Z,27.08
2018-05-12T12:12:34.741Z,27.18
2018-05-12T12:13:34.769Z,27.38
2018-05-12T12:14:34.801Z,28.02
2018-05-12T12:15:34.834Z,28.26
2018-05-12T12:16:34.942Z,28.23
2018-05-12T12:17:34.896Z,28.27
2018-05-12T12:18:34.925Z,28.83
2018-05-12T12:19:34.956Z,28.94
2018-05-12T12:20:34.988Z,28.76
2018-05-12T12:21:35.019Z,28.49
2018-05-12T12:22:35.057Z,28.58
2018-05-12T12:23:35.082Z,28.35
2018-05-12T12:24:35.113Z,28.03
2018-05-12T12:25:35.144Z,28.24
2018-05-12T12:26:35.175Z,28.51
2018-05-12T12:27:35.207Z,28.70
2018-05-12T12:28:35.237Z,28.85
2018-05-12T12:29:35.269Z,28.33
2018-05-12T12:30:35.299Z,28.17
2018-05-12T12:31:35.332Z,27.94
2018-05-12T12:32:35.367Z,27.62
2018-05-12T12:33:35.393Z,27.71
2018-05-12T12:34:35.424Z,27.53
2018-05-12T12:35:35.456Z,27.59
2018-05-12T12:36:35.486Z,27.52
2018-05-12T12:37:35.517Z,27.23
2018-05-12T12:38:35.546Z,26.89
2018-05-12T12:39:35.578Z,26.86
2018-05-12T12:40:35.608Z,27.08
2018-05-12T12:41:35.639Z,27.11
2018-05-12T12:42:35.669Z,27.33
2018-05-12T12:43:35.700Z,27.64
2018-05-12T12:44:35.732Z,27.53
2018-05-12T12:45:35.762Z,27.41
2018-05-12T12:46:35.795Z,27.34
2018-05-12T12:47:35.822Z,27.26
2018-05-12T12:48:35.851Z,27.24
2018-05-12T12:49:35.882Z,27.45
2018-05-12T12:50:35.911Z,26.96
2018-05-12T12:51:35.947Z,27.04
2018-05-12T12:52:35.972Z,27.01
2018-05-12T12:53:36.002Z,27.06
2018-05-12T12:54:36.031Z,27.71